Time;durP1;ratioP1;P1;durP2;ratioP2;P2;SDS_P1;SDS_P2;PMS_P1;PMS_P2;Temp;Humidity;BMP_temperature;BMP_pressure;BME280_temperature;BME280_humidity;BME280_pressure;Samples;Min_cycle;Max_cycle;Signal;HPM_P1;HPM_P2
2023/12/04 00:01:49;;;;;;;155.23;18.30;;;-5.10;86.10;;;;;;5004804;28;20109;-68
2023/12/04 00:04:14;;;;;;;56.58;15.35;;;-5.10;85.90;;;;;;5003798;28;20030;-68
2023/12/04 00:06:41;;;;;;;209.27;20.52;;;-5.10;85.60;;;;;;5003728;28;20088;-68
2023/12/04 00:09:07;;;;;;;289.45;21.77;;;-5.10;85.40;;;;;;5004273;28;20037;-67
2023/12/04 00:11:33;;;;;;;77.10;16.45;;;-5.10;85.10;;;;;;5006491;28;20038;-68
2023/12/04 00:13:59;;;;;;;54.05;16.40;;;-5.20;85.00;;;;;;5008013;28;20452;-67
2023/12/04 00:16:25;;;;;;;81.32;17.40;;;-5.20;85.20;;;;;;5007214;28;20042;-68
2023/12/04 00:18:50;;;;;;;84.53;18.05;;;-5.10;85.60;;;;;;5007267;28;20457;-67
2023/12/04 00:21:16;;;;;;;139.98;18.40;;;-5.10;85.80;;;;;;5008027;28;20035;-68
2023/12/04 00:23:41;;;;;;;57.78;16.05;;;-5.10;86.00;;;;;;5006562;28;20026;-67
2023/12/04 00:26:07;;;;;;;317.95;23.27;;;-5.10;86.10;;;;;;5008130;28;20607;-68
2023/12/04 00:28:36;;;;;;;200.07;18.65;;;-5.10;86.00;;;;;;5004620;28;20046;-68
2023/12/04 00:31:02;;;;;;;236.23;20.30;;;-5.10;85.60;;;;;;5007267;28;20084;-68
2023/12/04 00:33:27;;;;;;;174.57;18.92;;;-5.10;85.20;;;;;;5007759;28;20034;-67
2023/12/04 00:35:53;;;;;;;147.38;17.35;;;-5.20;84.70;;;;;;5007332;28;20053;-68
2023/12/04 00:38:19;;;;;;;260.92;23.55;;;-5.30;84.60;;;;;;5007161;28;20034;-67
2023/12/04 00:40:44;;;;;;;287.10;22.35;;;-5.30;84.70;;;;;;5006473;28;20429;-68
2023/12/04 00:43:10;;;;;;;121.68;16.15;;;-5.40;84.90;;;;;;4989886;28;20065;-68
2023/12/04 00:45:35;;;;;;;94.65;16.60;;;-5.40;85.00;;;;;;5007365;28;20038;-68
2023/12/04 00:48:02;;;;;;;67.63;16.08;;;-5.50;85.10;;;;;;5007105;28;20045;-67
2023/12/04 00:50:28;;;;;;;116.63;17.98;;;-5.50;85.30;;;;;;5006718;28;20030;-68
2023/12/04 00:52:54;;;;;;;150.18;18.00;;;-5.50;85.70;;;;;;5007385;28;20026;-68
2023/12/04 00:55:19;;;;;;;168.52;20.35;;;-5.50;86.00;;;;;;5007950;28;20060;-67
2023/12/04 00:57:45;;;;;;;34.58;14.85;;;-5.50;85.90;;;;;;5007010;28;20026;-67
2023/12/04 01:00:12;;;;;;;84.97;15.70;;;-5.50;85.90;;;;;;5006725;28;20038;-67
2023/12/04 01:02:37;;;;;;;58.33;15.80;;;-5.50;86.00;;;;;;5006300;28;20026;-67
2023/12/04 01:05:03;;;;;;;71.18;17.38;;;-5.50;86.10;;;;;;4989207;28;20326;-68
2023/12/04 01:07:29;;;;;;;56.67;15.82;;;-5.40;86.30;;;;;;5006520;28;20034;-67
2023/12/04 01:09:54;;;;;;;106.47;17.00;;;-5.50;86.20;;;;;;5006859;28;20576;-68
2023/12/04 01:12:21;;;;;;;128.10;18.48;;;-5.40;86.30;;;;;;5005898;28;20116;-67
2023/12/04 01:14:46;;;;;;;116.07;16.90;;;-5.40;86.10;;;;;;5005922;28;20041;-68
2023/12/04 01:17:12;;;;;;;104.65;17.90;;;-5.40;85.60;;;;;;5006535;28;20042;-67
2023/12/04 01:19:38;;;;;;;232.45;21.85;;;-5.50;85.20;;;;;;4988754;28;20528;-68
2023/12/04 01:22:05;;;;;;;108.53;16.80;;;-5.60;85.10;;;;;;5005793;28;20038;-68
2023/12/04 01:24:31;;;;;;;59.88;15.35;;;-5.60;84.90;;;;;;5006029;28;20080;-68
2023/12/04 01:26:56;;;;;;;123.88;17.17;;;-5.60;85.00;;;;;;5006662;28;20033;-67
2023/12/04 01:29:22;;;;;;;43.63;14.68;;;-5.70;85.40;;;;;;5003778;28;20052;-67
2023/12/04 01:31:48;;;;;;;31.33;15.40;;;-5.70;85.80;;;;;;5005514;28;20038;-67
2023/12/04 01:34:13;;;;;;;46.22;14.70;;;-5.70;86.00;;;;;;5006797;28;20347;-68
2023/12/04 01:36:42;;;;;;;44.58;15.23;;;-5.70;86.10;;;;;;5005507;28;20034;-68
2023/12/04 01:39:07;;;;;;;30.85;14.95;;;-5.60;86.20;;;;;;5005849;28;20034;-67
2023/12/04 01:41:33;;;;;;;85.03;16.98;;;-5.60;86.30;;;;;;5006581;28;20516;-68
2023/12/04 01:43:58;;;;;;;61.70;15.45;;;-5.60;86.20;;;;;;5006402;28;20520;-68
2023/12/04 01:46:24;;;;;;;56.05;16.27;;;-5.50;86.30;;;;;;5005287;28;20037;-68
2023/12/04 01:48:50;;;;;;;47.85;16.17;;;-5.50;86.00;;;;;;5006025;28;20030;-68
2023/12/04 01:51:17;;;;;;;38.42;16.08;;;-5.50;85.90;;;;;;5005496;28;20588;-68
2023/12/04 01:53:43;;;;;;;72.78;15.48;;;-5.50;85.80;;;;;;4981475;28;20530;-68
2023/12/04 01:56:10;;;;;;;35.13;13.68;;;-5.50;85.70;;;;;;4996811;28;20030;-67
2023/12/04 01:58:36;;;;;;;108.35;17.63;;;-5.50;85.30;;;;;;5005258;28;20088;-67
2023/12/04 02:01:02;;;;;;;79.32;16.25;;;-5.50;85.10;;;;;;5007778;28;20124;-68
2023/12/04 02:03:28;;;;;;;51.22;15.50;;;-5.50;84.80;;;;;;5005134;28;20038;-68
2023/12/04 02:05:56;;;;;;;45.10;15.60;;;-5.50;84.80;;;;;;5006217;28;20038;-68
2023/12/04 02:08:22;;;;;;;46.38;15.07;;;-5.50;84.90;;;;;;5005578;28;20035;-68
2023/12/04 02:10:48;;;;;;;49.22;14.95;;;-5.50;85.10;;;;;;5002181;28;20034;-68
2023/12/04 02:13:14;;;;;;;73.68;18.33;;;-5.50;85.20;;;;;;5005104;28;20045;-68
2023/12/04 02:15:40;;;;;;;231.02;21.52;;;-5.50;85.30;;;;;;5005867;28;20089;-68
2023/12/04 02:18:06;;;;;;;28.25;14.70;;;-5.60;85.10;;;;;;5004067;28;20034;-68
2023/12/04 02:20:35;;;;;;;43.03;17.23;;;-5.50;84.90;;;;;;5005288;28;20034;-68
2023/12/04 02:23:02;;;;;;;35.25;15.02;;;-5.50;84.90;;;;;;5005691;28;20042;-68
2023/12/04 02:25:28;;;;;;;83.20;17.25;;;-5.60;85.00;;;;;;5005422;28;20026;-68
2023/12/04 02:27:55;;;;;;;102.60;17.80;;;-5.50;85.10;;;;;;5004951;28;20449;-68
2023/12/04 02:30:24;;;;;;;201.43;17.85;;;-5.50;85.10;;;;;;5003893;28;20034;-68
2023/12/04 02:32:51;;;;;;;100.35;15.80;;;-5.50;85.00;;;;;;5004112;28;20037;-68
2023/12/04 02:35:22;;;;;;;163.57;17.52;;;-5.50;84.50;;;;;;5005673;28;20117;-68
2023/12/04 02:37:48;;;;;;;69.68;17.23;;;-5.60;84.00;;;;;;5005909;28;20103;-68
2023/12/04 02:40:15;;;;;;;68.95;16.10;;;-5.60;84.00;;;;;;4996538;28;20128;-68
2023/12/04 02:42:40;;;;;;;34.78;15.45;;;-5.70;84.00;;;;;;5004160;28;20461;-68
2023/12/04 02:45:07;;;;;;;50.72;15.88;;;-5.70;84.10;;;;;;4994616;28;20026;-68
2023/12/04 02:47:32;;;;;;;49.47;14.65;;;-5.70;84.50;;;;;;5005457;28;20046;-68
2023/12/04 02:49:58;;;;;;;63.92;16.98;;;-5.70;84.70;;;;;;5005179;28;20446;-68
2023/12/04 02:52:23;;;;;;;88.28;16.60;;;-5.70;84.90;;;;;;5004903;28;20489;-68
2023/12/04 02:54:49;;;;;;;105.32;16.27;;;-5.60;85.10;;;;;;5004686;28;20065;-68
2023/12/04 02:57:15;;;;;;;58.58;17.45;;;-5.70;85.00;;;;;;5004959;28;20042;-67
2023/12/04 02:59:40;;;;;;;134.05;16.90;;;-5.60;84.90;;;;;;4987018;28;20041;-67
2023/12/04 03:02:06;;;;;;;62.60;17.27;;;-5.60;84.90;;;;;;5005500;28;20046;-68
2023/12/04 03:04:32;;;;;;;48.97;15.85;;;-5.60;84.90;;;;;;5004562;28;20569;-68
2023/12/04 03:06:57;;;;;;;37.85;14.90;;;-5.60;84.90;;;;;;5005906;28;20029;-67
2023/12/04 03:09:23;;;;;;;44.92;16.23;;;-5.50;85.10;;;;;;5005403;28;20057;-68
2023/12/04 03:11:49;;;;;;;48.83;15.70;;;-5.50;85.30;;;;;;5003760;28;20038;-68
2023/12/04 03:14:14;;;;;;;117.70;18.08;;;-5.50;85.30;;;;;;5005508;28;20041;-68
2023/12/04 03:16:40;;;;;;;253.38;19.95;;;-5.50;85.20;;;;;;5003938;28;20084;-68
2023/12/04 03:19:06;;;;;;;145.77;20.08;;;-5.50;84.70;;;;;;5003434;28;20536;-67
2023/12/04 03:21:31;;;;;;;215.70;20.88;;;-5.50;84.00;;;;;;5004148;28;20440;-68
2023/12/04 03:23:57;;;;;;;117.50;19.40;;;-5.60;83.60;;;;;;5003727;28;20528;-66
2023/12/04 03:26:23;;;;;;;50.67;15.45;;;-5.60;83.40;;;;;;4986387;28;20045;-68
2023/12/04 03:28:48;;;;;;;43.22;14.88;;;-5.70;83.50;;;;;;5003950;28;20410;-67
2023/12/04 03:31:14;;;;;;;64.72;15.77;;;-5.80;83.90;;;;;;5003925;28;20387;-67
2023/12/04 03:33:39;;;;;;;125.88;19.15;;;-5.80;84.40;;;;;;5004037;28;20029;-67
2023/12/04 03:36:05;;;;;;;36.38;16.23;;;-5.80;84.70;;;;;;5004151;28;20030;-67
2023/12/04 03:38:31;;;;;;;42.65;16.98;;;-5.80;84.70;;;;;;5003699;28;20050;-68
2023/12/04 03:40:56;;;;;;;35.78;16.50;;;-5.80;84.80;;;;;;5003018;28;20053;-68
2023/12/04 03:43:22;;;;;;;89.00;18.08;;;-5.70;85.10;;;;;;5003703;28;20405;-67
2023/12/04 03:45:48;;;;;;;98.10;17.63;;;-5.70;85.30;;;;;;5006039;28;20101;-67
2023/12/04 03:48:13;;;;;;;95.60;18.63;;;-5.70;85.20;;;;;;5007674;28;20497;-67
2023/12/04 03:50:39;;;;;;;47.03;16.27;;;-5.70;85.10;;;;;;5006774;28;20915;-68
2023/12/04 03:53:04;;;;;;;62.78;16.88;;;-5.70;85.00;;;;;;5008433;28;20045;-67
2023/12/04 03:55:30;;;;;;;51.60;16.50;;;-5.60;85.10;;;;;;5007650;28;20117;-67
2023/12/04 03:57:57;;;;;;;60.10;18.30;;;-5.60;85.10;;;;;;5008288;28;20502;-66
2023/12/04 04:00:23;;;;;;;63.65;18.60;;;-5.60;85.00;;;;;;5006809;28;20529;-68
2023/12/04 04:02:49;;;;;;;57.08;17.77;;;-5.60;84.80;;;;;;5007929;28;20037;-67
2023/12/04 04:05:15;;;;;;;56.28;18.70;;;-5.70;84.60;;;;;;5008692;28;20030;-68
2023/12/04 04:07:41;;;;;;;56.25;18.40;;;-5.70;84.60;;;;;;5006392;28;20081;-67
2023/12/04 04:10:07;;;;;;;54.85;19.27;;;-5.70;84.60;;;;;;5007693;28;20038;-67
2023/12/04 04:12:33;;;;;;;50.13;18.40;;;-5.70;84.60;;;;;;5006228;28;20030;-68
2023/12/04 04:14:58;;;;;;;60.78;19.38;;;-5.80;84.50;;;;;;5008197;28;20038;-68
2023/12/04 04:17:27;;;;;;;45.33;17.63;;;-5.80;84.40;;;;;;5007266;28;20503;-67
2023/12/04 04:19:53;;;;;;;61.72;19.70;;;-5.80;84.40;;;;;;5007280;28;20513;-67
2023/12/04 04:22:22;;;;;;;52.17;19.20;;;-5.90;84.40;;;;;;5006892;28;20041;-67
2023/12/04 04:24:48;;;;;;;42.17;17.98;;;-5.90;84.40;;;;;;5006067;28;20350;-67
2023/12/04 04:27:14;;;;;;;42.65;18.35;;;-5.90;84.20;;;;;;5007067;28;20034;-67
2023/12/04 04:29:40;;;;;;;49.60;18.95;;;-5.90;84.10;;;;;;5006784;28;20402;-67
2023/12/04 04:32:06;;;;;;;56.35;19.77;;;-6.00;84.10;;;;;;5006486;28;20038;-67
2023/12/04 04:34:32;;;;;;;47.40;18.05;;;-6.10;84.20;;;;;;5005430;28;20034;-67
2023/12/04 04:36:57;;;;;;;52.10;19.08;;;-6.10;84.30;;;;;;5007088;28;20060;-67
2023/12/04 04:39:23;;;;;;;49.70;18.23;;;-6.10;84.40;;;;;;5006504;28;20060;-67
2023/12/04 04:41:48;;;;;;;43.53;17.80;;;-6.10;84.20;;;;;;5007442;28;20041;-67
2023/12/04 04:44:14;;;;;;;79.60;19.30;;;-6.10;84.30;;;;;;5007363;28;20034;-67
2023/12/04 04:46:40;;;;;;;66.10;19.33;;;-6.10;84.40;;;;;;5006614;28;20046;-67
2023/12/04 04:49:08;;;;;;;42.20;16.38;;;-6.20;84.10;;;;;;4989660;28;20041;-67
2023/12/04 04:51:34;;;;;;;34.47;16.85;;;-6.20;83.90;;;;;;5004707;28;20045;-67
2023/12/04 04:54:01;;;;;;;48.67;17.98;;;-6.20;83.90;;;;;;5000330;28;20065;-67
2023/12/04 04:56:26;;;;;;;37.05;17.65;;;-6.20;84.00;;;;;;5006508;28;20083;-67
2023/12/04 04:58:52;;;;;;;38.00;17.42;;;-6.20;84.00;;;;;;4987750;28;20437;-67
2023/12/04 05:01:18;;;;;;;43.65;17.25;;;-6.20;84.00;;;;;;5006541;28;20033;-67
2023/12/04 05:03:43;;;;;;;37.22;16.67;;;-6.30;84.10;;;;;;5006069;28;20022;-67
2023/12/04 05:06:09;;;;;;;39.80;17.73;;;-6.30;84.20;;;;;;5005758;28;20058;-67
2023/12/04 05:08:35;;;;;;;41.42;16.50;;;-6.20;84.30;;;;;;5004976;28;20030;-67
2023/12/04 05:11:00;;;;;;;59.85;17.38;;;-6.30;84.20;;;;;;5002519;28;20107;-67
2023/12/04 05:13:26;;;;;;;39.25;17.08;;;-6.20;84.30;;;;;;5006160;28;20120;-68
2023/12/04 05:15:51;;;;;;;59.35;17.15;;;-6.20;84.30;;;;;;5005788;28;20034;-68
2023/12/04 05:18:17;;;;;;;39.92;17.92;;;-6.20;84.20;;;;;;5005009;28;20026;-68
2023/12/04 05:20:42;;;;;;;36.50;17.33;;;-6.20;84.20;;;;;;5005916;28;20188;-67
2023/12/04 05:23:08;;;;;;;36.00;16.77;;;-6.20;84.20;;;;;;5007580;28;20457;-67
2023/12/04 05:25:33;;;;;;;39.17;16.20;;;-6.20;84.40;;;;;;5007177;28;20033;-68
2023/12/04 05:27:59;;;;;;;37.35;16.85;;;-6.20;84.60;;;;;;5006958;28;20034;-67
2023/12/04 05:30:25;;;;;;;32.47;16.25;;;-6.10;84.70;;;;;;4988777;28;20121;-68
2023/12/04 05:32:50;;;;;;;33.10;16.00;;;-6.10;84.70;;;;;;5006337;28;20049;-68
2023/12/04 05:35:16;;;;;;;36.58;16.85;;;-6.10;84.70;;;;;;5006726;28;20034;-67
2023/12/04 05:37:42;;;;;;;35.40;16.48;;;-6.00;84.80;;;;;;5006647;28;20508;-67
2023/12/04 05:40:08;;;;;;;38.92;16.85;;;-6.00;84.70;;;;;;5006524;28;20037;-67
2023/12/04 05:42:34;;;;;;;33.78;16.48;;;-6.00;84.60;;;;;;5005932;28;20034;-67
2023/12/04 05:45:00;;;;;;;33.00;16.30;;;-5.90;84.50;;;;;;5007199;28;20103;-67
2023/12/04 05:47:26;;;;;;;36.60;18.60;;;-5.90;84.40;;;;;;5006398;28;20485;-67
2023/12/04 05:49:52;;;;;;;36.78;17.73;;;-5.90;84.20;;;;;;5006424;28;20038;-67
2023/12/04 05:52:17;;;;;;;35.38;17.45;;;-5.80;84.00;;;;;;5006060;28;20563;-67
2023/12/04 05:54:43;;;;;;;33.40;16.65;;;-5.80;83.90;;;;;;5005881;28;20083;-67
2023/12/04 05:57:08;;;;;;;34.03;16.73;;;-5.80;83.70;;;;;;5007023;28;20173;-67
2023/12/04 05:59:34;;;;;;;33.95;16.45;;;-5.80;83.50;;;;;;5006034;28;20083;-68
2023/12/04 06:02:01;;;;;;;34.58;16.60;;;-5.80;83.40;;;;;;4988812;28;20041;-68
2023/12/04 06:04:27;;;;;;;34.72;16.40;;;-5.80;83.30;;;;;;5005651;28;20064;-68
2023/12/04 06:06:52;;;;;;;35.30;17.42;;;-5.80;83.20;;;;;;5005901;28;20026;-67
2023/12/04 06:09:18;;;;;;;35.53;17.23;;;-5.80;83.30;;;;;;5005322;28;20049;-67
2023/12/04 06:11:44;;;;;;;38.42;17.58;;;-5.80;83.30;;;;;;4988161;28;20041;-67
2023/12/04 06:14:10;;;;;;;37.38;18.08;;;-5.80;83.50;;;;;;5006294;28;20536;-67
2023/12/04 06:16:37;;;;;;;37.78;18.55;;;-5.80;83.60;;;;;;5005613;28;20311;-68
2023/12/04 06:19:04;;;;;;;46.30;22.50;;;-5.80;83.60;;;;;;5005232;28;20037;-68
2023/12/04 06:21:30;;;;;;;44.35;21.38;;;-5.80;83.60;;;;;;4995401;28;20113;-67
2023/12/04 06:23:56;;;;;;;38.55;18.83;;;-5.80;83.50;;;;;;4981445;28;20137;-67
2023/12/04 06:26:21;;;;;;;36.45;17.60;;;-5.70;83.40;;;;;;5004259;28;20105;-68
2023/12/04 06:28:47;;;;;;;38.28;18.52;;;-5.70;83.20;;;;;;5004704;28;20096;-67
2023/12/04 06:31:13;;;;;;;39.38;17.48;;;-5.70;83.00;;;;;;5005977;28;20037;-67
2023/12/04 06:33:39;;;;;;;37.63;17.60;;;-5.70;82.90;;;;;;5006964;28;20064;-67
2023/12/04 06:36:06;;;;;;;37.75;17.92;;;-5.70;82.80;;;;;;5005990;28;20518;-70
2023/12/04 06:38:34;;;;;;;36.80;17.98;;;-5.80;82.70;;;;;;5005259;28;20474;-70
2023/12/04 06:41:00;;;;;;;36.92;17.23;;;-5.80;82.60;;;;;;5005152;28;20124;-70
2023/12/04 06:43:26;;;;;;;35.85;17.60;;;-5.90;82.60;;;;;;5005843;28;20125;-69
2023/12/04 06:45:52;;;;;;;39.38;18.02;;;-5.90;82.50;;;;;;5005851;28;20030;-70
2023/12/04 06:48:18;;;;;;;35.60;17.63;;;-6.00;82.50;;;;;;4987799;28;20038;-70
2023/12/04 06:50:44;;;;;;;36.45;17.23;;;-6.00;82.60;;;;;;5004669;28;20409;-70
2023/12/04 06:53:09;;;;;;;38.78;17.65;;;-6.10;82.60;;;;;;5006139;28;20048;-69
2023/12/04 06:55:35;;;;;;;37.70;17.20;;;-6.10;82.70;;;;;;4987670;28;20033;-69
2023/12/04 06:58:00;;;;;;;38.13;17.92;;;-6.10;82.80;;;;;;5006008;28;20104;-70
2023/12/04 07:00:26;;;;;;;37.72;17.05;;;-6.20;82.80;;;;;;5004563;28;20140;-70
2023/12/04 07:02:51;;;;;;;37.03;17.58;;;-6.20;82.80;;;;;;5005529;28;20022;-69
2023/12/04 07:05:19;;;;;;;36.25;18.17;;;-6.20;83.00;;;;;;5005311;28;20026;-69
2023/12/04 07:07:44;;;;;;;36.35;18.25;;;-6.20;83.90;;;;;;5004937;28;20117;-69
2023/12/04 07:10:14;;;;;;;39.53;18.15;;;-6.20;83.00;;;;;;4987236;28;20113;-69
2023/12/04 07:12:43;;;;;;;35.88;17.88;;;-6.30;82.80;;;;;;5002742;28;20575;-70
2023/12/04 07:15:11;;;;;;;36.65;17.40;;;-6.30;82.80;;;;;;5005896;28;20037;-69
2023/12/04 07:17:38;;;;;;;38.83;18.10;;;-6.30;83.10;;;;;;5004953;28;20037;-70
2023/12/04 07:20:08;;;;;;;35.97;18.02;;;-6.30;83.20;;;;;;5006804;28;20642;-69
2023/12/04 07:22:34;;;;;;;36.75;18.05;;;-6.30;83.20;;;;;;5008089;28;20026;-70
2023/12/04 07:25:00;;;;;;;38.88;18.70;;;-6.30;83.20;;;;;;4991574;28;20022;-69
2023/12/04 07:27:25;;;;;;;37.42;18.20;;;-6.30;83.10;;;;;;5009399;28;20038;-69
2023/12/04 07:29:51;;;;;;;39.65;18.45;;;-6.30;83.00;;;;;;5009052;28;20521;-70
2023/12/04 07:32:18;;;;;;;37.25;18.02;;;-6.30;83.10;;;;;;5009349;28;20072;-70
2023/12/04 07:34:43;;;;;;;40.22;18.33;;;-6.30;83.20;;;;;;5008616;28;20516;-69
2023/12/04 07:37:09;;;;;;;38.53;18.73;;;-6.30;83.20;;;;;;5008968;28;20042;-70
2023/12/04 07:39:34;;;;;;;39.90;19.02;;;-6.30;83.10;;;;;;5008904;28;20034;-70
2023/12/04 07:42:00;;;;;;;40.55;19.48;;;-6.30;83.30;;;;;;5009498;28;20270;-69
2023/12/04 07:44:25;;;;;;;42.13;19.38;;;-6.30;83.40;;;;;;5008820;28;20045;-70
2023/12/04 07:46:51;;;;;;;42.33;19.83;;;-6.30;83.40;;;;;;5009020;28;20036;-69
2023/12/04 07:49:17;;;;;;;38.60;18.45;;;-6.20;83.70;;;;;;4990810;28;20161;-69
2023/12/04 07:51:42;;;;;;;38.72;18.33;;;-6.20;83.70;;;;;;5008817;28;20517;-69
2023/12/04 07:54:08;;;;;;;39.47;19.27;;;-6.10;83.90;;;;;;5009337;28;20138;-69
2023/12/04 07:56:33;;;;;;;37.75;19.75;;;-6.10;84.00;;;;;;5008139;28;20547;-69
2023/12/04 07:58:59;;;;;;;48.15;25.50;;;-6.00;84.10;;;;;;5007609;28;20112;-69
2023/12/04 08:01:24;;;;;;;39.65;20.05;;;-6.00;84.00;;;;;;5009188;28;20068;-69
2023/12/04 08:03:50;;;;;;;44.70;22.05;;;-5.90;83.90;;;;;;5008426;28;20108;-69
2023/12/04 08:06:18;;;;;;;59.38;30.77;;;-5.90;83.80;;;;;;5008810;28;20030;-69
2023/12/04 08:08:44;;;;;;;81.63;44.25;;;-5.90;83.70;;;;;;5007765;28;20239;-69
2023/12/04 08:11:11;;;;;;;183.23;93.72;;;-5.90;83.50;;;;;;5008254;28;20379;-69
2023/12/04 08:13:38;;;;;;;49.05;25.10;;;-5.90;83.30;;;;;;5010045;28;20509;-67
2023/12/04 08:16:07;;;;;;;41.63;19.45;;;-5.90;83.20;;;;;;5008379;28;20445;-66
2023/12/04 08:18:33;;;;;;;48.25;23.75;;;-5.90;83.30;;;;;;5007421;28;20041;-67
2023/12/04 08:21:00;;;;;;;42.53;20.92;;;-5.90;83.40;;;;;;5008217;28;20041;-67
2023/12/04 08:23:26;;;;;;;38.35;18.75;;;-5.90;83.30;;;;;;5008638;28;20058;-67
2023/12/04 08:25:51;;;;;;;42.33;19.25;;;-5.90;83.20;;;;;;5008385;28;20053;-68
2023/12/04 08:28:17;;;;;;;36.78;17.75;;;-5.90;83.20;;;;;;5007135;28;20030;-67
2023/12/04 08:30:43;;;;;;;38.60;18.67;;;-5.90;83.20;;;;;;5006438;28;20030;-68
2023/12/04 08:33:08;;;;;;;38.38;19.83;;;-5.90;83.30;;;;;;5008037;28;20034;-67
2023/12/04 08:35:34;;;;;;;39.80;19.50;;;-5.80;83.50;;;;;;5008139;28;20433;-67
2023/12/04 08:37:59;;;;;;;38.30;18.55;;;-5.80;83.70;;;;;;5007720;28;20387;-67
2023/12/04 08:40:25;;;;;;;34.97;17.75;;;-5.80;83.90;;;;;;4989565;28;20037;-67
2023/12/04 08:42:50;;;;;;;40.30;20.17;;;-5.70;83.90;;;;;;5007621;28;20124;-67
2023/12/04 08:45:16;;;;;;;40.53;19.42;;;-5.70;83.90;;;;;;5008078;28;20037;-67
2023/12/04 08:47:41;;;;;;;41.08;18.88;;;-5.60;83.70;;;;;;5007334;28;20030;-66
2023/12/04 08:50:07;;;;;;;46.20;21.33;;;-5.60;83.70;;;;;;5007620;28;20470;-67
2023/12/04 08:52:33;;;;;;;44.78;20.58;;;-5.60;83.70;;;;;;5006602;28;20038;-66
2023/12/04 08:54:59;;;;;;;76.80;39.65;;;-5.50;83.70;;;;;;4983817;28;20064;-66
2023/12/04 08:57:25;;;;;;;46.67;24.13;;;-5.50;83.50;;;;;;5006728;28;20045;-66
2023/12/04 08:59:52;;;;;;;41.42;20.75;;;-5.50;83.40;;;;;;5006933;28;20317;-67
2023/12/04 09:02:18;;;;;;;39.55;19.58;;;-5.50;83.40;;;;;;5005808;28;20038;-67
2023/12/04 09:04:43;;;;;;;37.15;18.30;;;-5.50;83.30;;;;;;5008211;28;20034;-67
2023/12/04 09:07:09;;;;;;;36.28;18.42;;;-5.50;83.30;;;;;;5008392;28;20030;-67
2023/12/04 09:09:35;;;;;;;34.28;17.15;;;-5.50;83.40;;;;;;5008197;28;20032;-66
2023/12/04 09:12:00;;;;;;;57.28;27.15;;;-5.50;84.20;;;;;;5007156;28;20433;-66
2023/12/04 09:14:27;;;;;;;38.85;19.02;;;-5.50;84.10;;;;;;5007737;28;20037;-66
2023/12/04 09:16:53;;;;;;;38.83;18.42;;;-5.50;83.50;;;;;;5008302;28;20096;-68
2023/12/04 09:19:19;;;;;;;77.57;21.08;;;-5.50;83.60;;;;;;5007869;28;20092;-67
2023/12/04 09:21:44;;;;;;;40.70;19.52;;;-5.50;83.60;;;;;;5008455;28;20030;-67
2023/12/04 09:24:10;;;;;;;40.25;17.92;;;-5.50;83.70;;;;;;5008448;28;20034;-67
2023/12/04 09:26:35;;;;;;;41.95;18.33;;;-5.50;83.70;;;;;;5007382;28;20030;-67
2023/12/04 09:29:02;;;;;;;36.65;18.75;;;-5.40;83.80;;;;;;5008794;28;20049;-67
2023/12/04 09:31:27;;;;;;;36.17;18.30;;;-5.40;83.90;;;;;;5008244;28;20034;-67
2023/12/04 09:33:53;;;;;;;38.03;17.85;;;-5.30;84.00;;;;;;5008176;28;20029;-67
2023/12/04 09:36:19;;;;;;;39.08;20.08;;;-5.30;83.70;;;;;;5007529;28;20045;-67
2023/12/04 09:38:45;;;;;;;36.85;17.92;;;-5.30;83.70;;;;;;5007814;28;20535;-67
2023/12/04 09:41:12;;;;;;;39.20;18.85;;;-5.20;83.60;;;;;;5008118;28;20042;-67
2023/12/04 09:43:38;;;;;;;42.00;19.92;;;-5.20;83.60;;;;;;5007527;28;20378;-67
2023/12/04 09:46:04;;;;;;;40.88;20.08;;;-5.20;83.50;;;;;;5008881;28;20030;-67
2023/12/04 09:48:31;;;;;;;41.13;19.65;;;-5.10;83.90;;;;;;5007129;28;20073;-67
2023/12/04 09:50:57;;;;;;;39.47;20.38;;;-5.10;84.00;;;;;;5007972;28;20389;-66
2023/12/04 09:53:24;;;;;;;42.85;21.08;;;-5.10;84.40;;;;;;5008384;28;20046;-67
2023/12/04 09:55:50;;;;;;;43.83;20.50;;;-5.00;84.00;;;;;;5007288;28;20041;-67
2023/12/04 09:58:19;;;;;;;44.75;20.65;;;-5.00;83.80;;;;;;5007642;28;20034;-67
2023/12/04 10:00:45;;;;;;;39.15;20.27;;;-5.00;83.60;;;;;;5006892;28;20050;-67
2023/12/04 10:03:12;;;;;;;38.17;18.77;;;-5.00;83.30;;;;;;5007817;28;20045;-67
2023/12/04 10:05:38;;;;;;;40.00;19.55;;;-5.00;83.30;;;;;;5005786;28;20172;-67
2023/12/04 10:08:04;;;;;;;36.55;18.83;;;-5.00;83.50;;;;;;5007575;28;20045;-67
2023/12/04 10:10:30;;;;;;;40.17;19.23;;;-5.00;83.80;;;;;;5006397;28;20060;-66
2023/12/04 10:12:55;;;;;;;36.75;17.98;;;-4.90;83.90;;;;;;5007814;28;20070;-67
2023/12/04 10:15:21;;;;;;;36.20;18.67;;;-4.90;83.90;;;;;;5007723;28;20033;-67
2023/12/04 10:17:46;;;;;;;40.97;20.08;;;-4.90;83.40;;;;;;5006849;28;20457;-67
2023/12/04 10:20:17;;;;;;;41.70;19.98;;;-4.90;83.50;;;;;;5007400;28;20113;-68
2023/12/04 10:23:01;;;;;;;40.42;20.90;;;-4.80;84.00;;;;;;4995596;28;20033;-66
2023/12/04 10:25:29;;;;;;;42.92;21.77;;;-4.80;84.50;;;;;;5007627;28;20030;-67
2023/12/04 10:28:10;;;;;;;45.63;21.67;;;-4.70;84.60;;;;;;5006680;28;20026;-67
2023/12/04 10:30:36;;;;;;;43.60;20.65;;;-4.60;84.80;;;;;;5006341;28;20168;-67
2023/12/04 10:33:04;;;;;;;42.20;20.50;;;-4.50;84.90;;;;;;5007370;28;20038;-67
2023/12/04 10:35:32;;;;;;;45.25;21.63;;;-4.50;84.60;;;;;;5007082;28;20034;-67
2023/12/04 10:37:59;;;;;;;38.85;18.83;;;-4.40;84.40;;;;;;5006756;28;20057;-67
2023/12/04 10:40:29;;;;;;;40.65;19.73;;;-4.30;84.40;;;;;;5006669;28;20525;-67
2023/12/04 10:43:14;;;;;;;42.03;19.88;;;-4.30;83.90;;;;;;4997799;28;20061;-67
2023/12/04 10:45:41;;;;;;;39.45;19.02;;;-4.20;83.80;;;;;;5005722;28;20030;-67
2023/12/04 10:48:08;;;;;;;40.60;20.33;;;-4.20;83.60;;;;;;5006548;28;20034;-66
2023/12/04 10:50:38;;;;;;;38.70;18.00;;;-4.20;83.80;;;;;;5006172;28;20034;-67
2023/12/04 10:53:05;;;;;;;38.80;18.35;;;-4.10;83.90;;;;;;5007331;28;20431;-67
2023/12/04 10:55:31;;;;;;;38.30;18.13;;;-4.10;83.90;;;;;;5006651;28;20046;-67
2023/12/04 10:58:01;;;;;;;36.60;17.55;;;-4.00;84.00;;;;;;5006675;28;20457;-67
2023/12/04 11:00:29;;;;;;;38.47;18.55;;;-3.90;84.10;;;;;;5006200;28;20036;-66
2023/12/04 11:02:59;;;;;;;38.97;18.90;;;-3.90;84.20;;;;;;5006965;28;20034;-67
2023/12/04 11:05:25;;;;;;;38.70;18.83;;;-3.80;84.40;;;;;;5006661;28;20398;-67
2023/12/04 11:07:56;;;;;;;44.75;22.55;;;-3.70;84.50;;;;;;5006061;28;20058;-67
2023/12/04 11:10:26;;;;;;;42.75;22.73;;;-3.70;84.40;;;;;;5004684;28;20390;-67
2023/12/04 11:13:03;;;;;;;43.92;24.50;;;-3.60;84.30;;;;;;4988141;28;20545;-67
2023/12/04 11:15:31;;;;;;;44.38;23.48;;;-3.50;84.00;;;;;;5006638;28;20049;-67
2023/12/04 11:18:00;;;;;;;38.78;21.38;;;-3.50;83.80;;;;;;5006420;28;20038;-66
2023/12/04 11:20:30;;;;;;;38.97;20.73;;;-3.50;83.90;;;;;;5006023;28;20685;-67
2023/12/04 11:22:56;;;;;;;38.10;21.15;;;-3.40;83.90;;;;;;5005521;28;20109;-66
2023/12/04 11:25:24;;;;;;;41.85;20.13;;;-3.50;83.90;;;;;;5006334;28;20033;-66
2023/12/04 11:27:53;;;;;;;42.53;20.85;;;-3.40;83.90;;;;;;5006036;28;20030;-67
2023/12/04 11:30:19;;;;;;;39.97;21.00;;;-3.40;83.80;;;;;;5006588;28;20034;-68
2023/12/04 11:32:46;;;;;;;36.97;19.95;;;-3.40;83.60;;;;;;5005617;28;20042;-67
2023/12/04 11:35:17;;;;;;;37.83;20.10;;;-3.40;83.50;;;;;;5006428;28;20052;-67
2023/12/04 11:37:43;;;;;;;40.10;21.27;;;-3.30;83.60;;;;;;5006232;28;20302;-67
2023/12/04 11:40:15;;;;;;;39.53;21.38;;;-3.30;83.60;;;;;;5006109;28;20037;-67
2023/12/04 11:42:41;;;;;;;36.92;20.20;;;-3.30;83.50;;;;;;5006092;28;20037;-67
2023/12/04 11:45:07;;;;;;;40.15;20.38;;;-3.20;83.70;;;;;;5006882;28;20044;-67
2023/12/04 11:47:57;;;;;;;37.28;19.25;;;-3.20;83.90;;;;;;5005800;28;20041;-67
2023/12/04 11:50:26;;;;;;;38.38;18.98;;;-3.10;84.20;;;;;;4998080;28;20314;-67
2023/12/04 11:52:54;;;;;;;37.13;19.17;;;-3.10;84.30;;;;;;5006165;28;20092;-67
2023/12/04 11:55:23;;;;;;;37.42;20.13;;;-3.00;84.40;;;;;;5006500;28;20046;-67
2023/12/04 11:57:54;;;;;;;45.40;22.20;;;-2.90;84.50;;;;;;5006020;28;20096;-67
2023/12/04 12:00:22;;;;;;;45.05;23.10;;;-2.90;84.30;;;;;;5005838;28;20046;-67
2023/12/04 12:02:53;;;;;;;48.80;24.08;;;-2.80;84.30;;;;;;5005540;28;20065;-67
2023/12/04 12:05:23;;;;;;;45.15;21.92;;;-2.70;84.40;;;;;;5006257;28;20037;-66
2023/12/04 12:07:49;;;;;;;44.58;21.65;;;-2.60;84.40;;;;;;5008995;28;20025;-67
2023/12/04 12:10:16;;;;;;;40.22;21.17;;;-2.60;84.30;;;;;;5007875;28;20118;-67
2023/12/04 12:12:43;;;;;;;47.13;22.42;;;-2.60;84.20;;;;;;5006613;28;20408;-67
2023/12/04 12:15:09;;;;;;;41.10;20.33;;;-2.50;84.20;;;;;;5009311;28;20062;-67
2023/12/04 12:17:37;;;;;;;48.70;23.50;;;-2.50;84.10;;;;;;5009288;28;20030;-67
2023/12/04 12:20:06;;;;;;;45.08;22.90;;;-2.40;84.20;;;;;;5009114;28;20460;-66
2023/12/04 12:22:33;;;;;;;42.83;21.52;;;-2.40;84.20;;;;;;5008802;28;20517;-66